Latest Weather Observations for Omeo

IDV60801

Issued at 10:35 am EST Wednesday 30 July 2014 (issued every 30 minutes, with the page automatically refreshed every 10 minutes)

About weather observations | Map of weather stations | Latest weather observations for VIC | Other Formats
Station Details ID: 083090 Name: OMEO Lat: -37.10 Lon: 147.60 Height: 689.8 m
Data from the previous 72 hours. | See also: Recent months at Omeo
Date/Time
EST
Temp
°C
App
Temp
°C
Dew
Point
Rel
Hum
%
Delta-T
°C
Wind Press
QNH
hPa
Press
MSL
hPa
Rain
since 9 am
mm
Dir
 
Spd
km/h
Gust
km/h
Spd
kts
Gust
kts
30/10:30am 12.8 6.3 8.1 73 2.4 N 32 46 17 25 1013.3 - 0.0
30/09:30am 11.4 6.1 8.4 82 1.5 N 26 41 14 22 1013.1 - 0.0
30/09:00am 10.5 5.2 8.4 87 1.1 N 26 39 14 21 1013.2 1014.4 0.0
30/08:30am 9.9 4.9 8.2 89 0.9 N 24 33 13 18 1013.2 - 0.0
30/08:00am 8.9 3.4 7.7 92 0.6 N 26 35 14 19 1013.0 1014.1 0.0
30/07:30am 8.8 4.1 7.7 93 0.5 N 22 33 12 18 1013.2 - 0.0
30/07:00am 8.9 4.2 7.7 92 0.6 N 22 32 12 17 1012.9 1014.0 0.0
30/06:30am 8.9 5.2 7.8 93 0.5 N 17 26 9 14 1013.1 - 0.0
30/06:00am 9.1 4.8 8.0 93 0.5 N 20 30 11 16 1012.6 1013.7 0.0
30/05:30am 9.3 5.2 7.9 91 0.7 N 19 28 10 15 1012.4 - 0.0
30/05:00am 9.2 6.3 8.0 92 0.6 N 13 20 7 11 1012.2 1013.3 0.0
30/04:30am 9.1 6.1 7.7 91 0.7 N 13 19 7 10 1011.9 - 0.0
30/04:00am 9.2 5.1 7.8 91 0.7 N 19 28 10 15 1011.7 1012.8 0.0
30/03:30am 9.5 5.7 7.6 88 0.9 N 17 24 9 13 1011.9 - 0.0
30/03:00am 9.8 5.4 7.4 85 1.2 N 20 28 11 15 1012.0 1013.1 0.0
30/02:30am 9.9 4.6 7.0 82 1.4 N 24 35 13 19 1011.6 - 0.0
30/02:00am 10.5 6.8 6.3 75 2.0 N 15 24 8 13 1011.6 1012.7 0.0
30/01:30am 11.1 6.6 6.0 71 2.5 N 19 28 10 15 1011.9 - 0.0
30/01:00am 11.3 6.8 6.0 70 2.6 NW 19 22 10 12 1011.5 1012.6 0.0
30/12:30am 10.6 6.0 6.7 77 1.9 NNW 20 30 11 16 1011.6 - 0.0
30/12:00am 9.5 5.0 6.9 84 1.3 N 20 32 11 17 1011.7 1012.8 0.0
 
Date/Time
EST
Temp
°C
App
Temp
°C
Dew
Point
Rel
Hum
%
Delta-T
°C
Wind Press
QNH
hPa
Press
MSL
hPa
Rain
since 9 am
mm
Dir
 
Spd
km/h
Gust
km/h
Spd
kts
Gust
kts
29/11:30pm 9.4 3.7 6.7 83 1.3 N 26 37 14 20 1011.5 - 0.0
29/11:00pm 9.4 3.7 6.5 82 1.4 N 26 39 14 21 1011.2 1012.3 0.0
29/10:30pm 9.4 4.7 6.1 80 1.6 N 20 30 11 16 1011.9 - 0.0
29/10:00pm 9.5 4.0 6.0 79 1.7 N 24 35 13 19 1012.2 1013.3 0.0
29/09:30pm 9.4 3.5 5.6 77 1.8 N 26 39 14 21 1012.1 - 0.0
29/09:00pm 9.8 3.4 5.2 73 2.2 N 28 46 15 25 1012.0 1013.1 0.0
29/08:30pm 10.0 3.6 5.0 71 2.4 N 28 41 15 22 1011.9 - 0.0
29/08:05pm 9.9 3.4 4.9 71 2.3 N 28 46 15 25 1011.5 - 0.0
29/08:00pm 10.1 2.8 4.7 69 2.5 N 32 46 17 25 1011.5 1012.6 0.0
29/07:41pm 10.8 3.9 4.5 65 2.9 N 30 48 16 26 1011.9 - 0.0
29/07:30pm 10.7 4.2 4.6 66 2.9 N 28 43 15 23 1011.9 - 0.0
29/07:15pm 10.3 3.5 5.1 70 2.5 N 30 48 16 26 1011.5 - 0.0
29/07:00pm 10.5 3.7 4.9 68 2.6 N 30 39 16 21 1011.1 1012.2 0.0
29/06:33pm 10.8 4.0 4.9 67 2.8 N 30 48 16 26 1011.0 - 0.0
29/06:30pm 10.4 4.0 5.2 70 2.5 N 28 44 15 24 1011.1 - 0.0
29/06:00pm 10.7 3.5 5.0 68 2.7 N 32 54 17 29 1010.5 1011.5 0.0
29/05:30pm 10.2 2.9 5.4 72 2.3 N 33 54 18 29 1009.9 - 0.0
29/05:05pm 10.4 4.0 5.2 70 2.5 N 28 46 15 25 1009.9 - 0.0
29/05:00pm 10.8 4.0 5.1 68 2.7 N 30 43 16 23 1009.8 1010.9 0.0
29/04:33pm 10.8 4.0 4.9 67 2.8 N 30 50 16 27 1010.0 - 0.0
29/04:30pm 10.6 4.1 4.9 68 2.7 N 28 44 15 24 1010.0 - 0.0
29/04:02pm 10.9 4.4 4.8 66 2.9 NNW 28 46 15 25 1009.8 - 0.0
29/04:00pm 11.4 4.5 4.4 62 3.3 NNW 30 46 16 25 1009.7 1010.8 0.0
29/03:32pm 10.9 3.6 4.4 64 3.0 N 32 56 17 30 1010.1 - 0.0
29/03:30pm 10.4 3.5 4.5 67 2.8 N 30 43 16 23 1010.2 - 0.0
29/03:03pm 10.8 3.8 4.3 64 3.0 N 30 48 16 26 1009.8 - 0.0
29/03:00pm 10.9 3.6 4.4 64 3.0 N 32 48 17 26 1009.8 1010.9 0.0
29/02:41pm 10.8 3.2 3.8 62 3.2 N 33 56 18 30 1009.8 - 0.0
29/02:30pm 10.8 3.4 3.8 62 3.2 NNW 32 46 17 25 1009.8 - 0.0
29/02:06pm 10.8 3.7 3.8 62 3.2 NNW 30 48 16 26 1009.7 - 0.0
29/02:00pm 11.0 4.3 3.8 61 3.3 NNW 28 44 15 24 1010.0 1011.1 0.0
29/01:30pm 12.3 4.0 2.2 50 4.5 NNW 35 56 19 30 1010.5 - 0.0
29/01:00pm 11.6 3.7 2.4 53 4.1 NNW 33 56 18 30 1011.2 1012.3 0.0
29/12:30pm 12.1 4.3 2.0 50 4.5 NNW 32 59 17 32 1010.9 - 0.0
29/12:16pm 12.6 4.7 2.5 50 4.6 NNW 33 54 18 29 1011.0 - 0.0
29/12:00pm 12.3 5.2 3.5 55 4.1 N 30 44 16 24 1011.1 1012.2 0.0
29/11:30am 11.9 4.1 2.9 54 4.1 N 33 57 18 31 1010.9 - 0.0
29/11:13am 11.2 4.1 3.5 59 3.5 N 30 50 16 27 1012.0 - 0.0
29/11:00am 11.7 4.2 3.2 56 3.9 N 32 46 17 25 1012.3 1013.4 0.0
29/10:42am 11.7 4.4 2.7 54 4.1 N 30 48 16 26 1012.2 - 0.0
29/10:30am 11.6 3.9 2.4 53 4.1 N 32 41 17 22 1012.5 - 0.0
29/10:00am 11.6 1.6 1.3 49 4.5 NNW 43 63 23 34 1012.5 1013.6 0.0
29/09:30am 10.7 2.6 1.3 52 4.1 N 33 54 18 29 1012.8 - 0.0
29/09:00am 10.4 2.8 0.4 50 4.3 NNW 30 48 16 26 1012.1 1013.2 0.0
29/08:38am 10.9 2.2 -0.2 46 4.7 NNW 35 54 19 29 1011.7 - 0.0
29/08:30am 11.2 1.7 -0.6 44 4.9 NNW 39 56 21 30 1011.6 - 0.0
29/08:18am 11.4 1.9 -1.0 42 5.2 NNW 39 57 21 31 1011.3 - 0.0
29/08:00am 11.5 3.3 0.3 46 4.8 NNW 33 46 18 25 1011.4 1012.5 0.0
29/07:30am 11.2 3.3 1.2 50 4.4 NNW 32 48 17 26 1011.7 - 0.0
29/07:27am 11.1 3.6 1.1 50 4.3 NNW 30 48 16 26 1011.7 - 0.0
29/07:00am 10.3 3.2 1.4 54 3.9 N 28 43 15 23 1011.6 1012.7 0.0
29/06:30am 9.6 1.2 1.3 56 3.6 N 35 57 19 31 1011.6 - 0.0
29/06:24am 10.2 2.3 0.8 52 4.0 N 32 57 17 31 1011.4 - 0.0
29/06:00am 8.5 1.1 2.1 64 2.8 N 30 44 16 24 1011.5 1012.6 0.0
29/05:44am 8.7 1.8 2.3 64 2.8 N 28 46 15 25 1011.4 - 0.0
29/05:30am 9.1 1.4 2.2 62 3.0 NNW 32 46 17 25 1011.4 - 0.0
29/05:00am 9.2 1.5 2.3 62 3.0 NNW 32 57 17 31 1011.3 1012.4 0.0
29/04:44am 10.1 3.1 2.0 57 3.6 N 28 61 15 33 1011.3 - 0.0
29/04:30am 8.8 1.9 2.4 64 2.8 NNW 28 43 15 23 1011.5 - 0.0
29/04:00am 9.4 2.5 2.7 63 3.0 NNW 28 46 15 25 1011.7 1012.8 0.0
29/03:54am 8.9 2.0 2.5 64 2.8 N 28 46 15 25 1011.9 - 0.0
29/03:30am 9.5 2.6 2.6 62 3.1 N 28 41 15 22 1012.2 - 0.0
29/03:00am 9.1 2.6 2.9 65 2.8 N 26 43 14 23 1012.4 1013.5 0.0
29/02:30am 8.8 1.6 3.0 67 2.6 N 30 46 16 25 1012.5 - 0.0
29/02:00am 8.4 2.4 3.3 70 2.3 N 24 37 13 20 1012.9 1014.0 0.0
29/01:30am 8.1 3.0 3.2 71 2.2 N 19 28 10 15 1013.3 - 0.0
29/01:00am 7.3 3.0 3.4 76 1.7 N 15 22 8 12 1013.8 1014.9 0.0
29/12:30am 7.4 2.8 3.6 77 1.7 N 17 24 9 13 1014.1 - 0.0
29/12:00am 7.7 2.1 3.7 76 1.8 N 22 33 12 18 1014.3 1015.4 0.0
 
Date/Time
EST
Temp
°C
App
Temp
°C
Dew
Point
Rel
Hum
%
Delta-T
°C
Wind Press
QNH
hPa
Press
MSL
hPa
Rain
since 9 am
mm
Dir
 
Spd
km/h
Gust
km/h
Spd
kts
Gust
kts
28/11:30pm 7.8 2.2 3.7 75 1.8 N 22 32 12 17 1014.5 - 0.0
28/11:00pm 7.8 1.9 3.7 75 1.8 N 24 35 13 19 1015.0 1016.1 0.0
28/10:30pm 7.8 1.5 3.7 75 1.8 N 26 44 14 24 1015.1 - 0.0
28/10:00pm 7.9 2.8 3.9 76 1.8 N 20 30 11 16 1015.5 1016.6 0.0
28/09:30pm 7.5 1.6 3.9 78 1.6 N 24 32 13 17 1015.4 - 0.0
28/09:00pm 7.6 2.5 4.0 78 1.6 N 20 33 11 18 1015.4 1016.5 0.0
28/08:30pm 7.3 2.4 3.9 79 1.5 N 19 28 10 15 1015.4 - 0.0
28/08:00pm 8.0 2.8 3.8 75 1.9 N 20 37 11 20 1015.6 1016.8 0.0
28/07:30pm 7.8 0.3 3.7 75 1.8 N 32 54 17 29 1015.0 - 0.0
28/07:00pm 8.1 0.1 3.8 74 1.9 N 35 54 19 29 1014.6 1015.8 0.0
28/06:42pm 8.6 1.5 3.6 71 2.3 N 30 48 16 26 1015.4 - 0.0
28/06:30pm 8.2 1.5 3.9 74 1.9 N 28 39 15 21 1015.5 - 0.0
28/06:00pm 8.5 2.2 3.9 73 2.1 N 26 39 14 21 1015.1 1016.2 0.0
28/05:30pm 9.3 2.7 4.1 70 2.4 N 28 37 15 20 1015.1 - 0.0
28/05:00pm 9.4 3.2 4.2 70 2.4 N 26 41 14 22 1015.1 1016.2 0.0
28/04:30pm 10.5 4.3 4.4 66 2.8 N 26 39 14 21 1015.1 - 0.0
28/04:00pm 11.0 4.5 4.7 65 3.0 N 28 37 15 20 1015.1 1016.2 0.0
28/03:30pm 10.8 5.0 4.5 65 2.9 N 24 39 13 21 1014.8 - 0.0
28/03:00pm 11.3 4.8 4.7 64 3.1 N 28 37 15 20 1015.2 1016.3 0.0
28/02:30pm 11.2 5.1 4.7 64 3.1 N 26 35 14 19 1015.5 - 0.0
28/02:00pm 10.8 5.0 4.5 65 2.9 N 24 39 13 21 1015.8 1017.0 0.0
28/01:30pm 10.8 4.3 4.7 66 2.9 N 28 43 15 23 1016.4 - 0.0
28/01:00pm 10.8 3.6 4.9 67 2.8 N 32 44 17 24 1016.9 1018.1 0.0
28/12:30pm 10.4 3.0 4.1 65 2.9 N 32 48 17 26 1017.3 - 0.0
28/12:13pm 10.6 4.0 4.3 65 2.9 N 28 48 15 26 1017.6 - 0.0
28/12:00pm 10.4 3.1 4.3 66 2.8 N 32 44 17 24 1017.8 1019.0 0.0
28/11:30am 10.5 4.4 4.9 68 2.6 N 26 41 14 22 1018.2 - 0.0
28/11:00am 9.9 2.5 4.1 67 2.7 N 32 44 17 24 1018.9 1020.1 0.0
28/10:44am 10.0 3.1 4.6 69 2.5 N 30 50 16 27 1019.2 - 0.0
28/10:30am 9.5 2.5 4.1 69 2.5 N 30 41 16 22 1019.2 - 0.0
28/10:00am 9.2 2.6 4.4 72 2.2 N 28 39 15 21 1019.4 1020.7 0.0
28/09:30am 8.8 3.0 4.4 74 2.0 N 24 33 13 18 1019.4 - 0.0
28/09:00am 8.2 3.1 4.2 76 1.8 N 20 32 11 17 1019.8 1021.0 0.0
28/08:30am 7.6 2.8 4.4 80 1.5 N 19 30 10 16 1019.9 - 0.0
28/08:00am 6.7 2.2 4.2 84 1.1 N 17 24 9 13 1019.9 1021.1 0.0
28/07:30am 6.2 1.6 3.9 85 1.0 N 17 24 9 13 1019.8 - 0.0
28/07:00am 6.0 1.0 3.7 85 1.0 N 19 26 10 14 1019.7 1020.9 0.0
28/06:30am 6.0 1.4 3.7 85 1.0 N 17 24 9 13 1019.7 - 0.0
28/06:00am 5.8 1.2 3.6 86 1.0 N 17 26 9 14 1019.7 1020.9 0.0
28/05:30am 4.9 0.2 2.9 87 0.9 NNW 17 26 9 14 1019.4 - 0.0
28/05:00am 4.8 0.4 2.8 87 0.9 N 15 20 8 11 1019.5 1020.8 0.0
28/04:30am 4.5 0.4 2.5 87 0.8 N 13 17 7 9 1019.5 - 0.0
28/04:00am 4.8 0.7 2.5 85 1.0 N 13 19 7 10 1019.7 1020.9 0.0
28/03:30am 5.5 0.4 2.8 83 1.2 N 19 28 10 15 1019.4 - 0.0
28/03:00am 5.6 0.5 2.8 82 1.2 N 19 28 10 15 1019.5 1020.8 0.0
28/02:30am 5.8 0.7 3.0 82 1.2 N 19 30 10 16 1019.5 - 0.0
28/02:00am 4.8 0.0 2.8 87 0.9 NNW 17 24 9 13 1019.9 1021.1 0.0
28/01:30am 4.6 0.2 2.6 87 0.8 NW 15 20 8 11 1020.5 - 0.0
28/01:00am 4.1 0.0 2.5 89 0.7 NNW 13 17 7 9 1020.8 1022.1 0.0
28/12:30am 4.4 1.1 2.4 87 0.8 NNW 9 13 5 7 1021.2 - 0.0
28/12:00am 4.5 0.8 2.2 85 1.0 N 11 15 6 8 1021.6 1022.8 0.0
 
Date/Time
EST
Temp
°C
App
Temp
°C
Dew
Point
Rel
Hum
%
Delta-T
°C
Wind Press
QNH
hPa
Press
MSL
hPa
Rain
since 9 am
mm
Dir
 
Spd
km/h
Gust
km/h
Spd
kts
Gust
kts
27/11:30pm 5.0 1.3 2.2 82 1.2 N 11 15 6 8 1021.6 - 0.0
27/11:00pm 5.5 0.7 2.5 81 1.3 N 17 24 9 13 1021.5 1022.7 0.0
27/10:30pm 5.5 0.7 2.5 81 1.3 N 17 22 9 12 1021.5 - 0.0
27/10:00pm 6.3 0.6 2.8 78 1.5 N 22 32 12 17 1021.9 1023.2 0.0
27/09:30pm 7.2 1.3 1.9 69 2.3 N 22 35 12 19 1021.7 - 0.0
27/09:00pm 6.5 2.1 2.8 77 1.6 N 15 22 8 12 1022.2 1023.5 0.0
27/08:30pm 6.8 2.9 3.4 79 1.5 NNW 13 17 7 9 1022.5 - 0.0
27/08:00pm 7.0 3.1 3.6 79 1.5 NNW 13 19 7 10 1022.6 1023.9 0.0
27/07:30pm 7.2 3.4 4.0 80 1.4 N 13 19 7 10 1022.4 - 0.0
27/07:00pm 7.3 3.2 4.1 80 1.4 N 15 20 8 11 1022.0 1023.3 0.0
27/06:30pm 7.4 3.3 4.2 80 1.4 N 15 20 8 11 1022.0 - 0.0
27/06:00pm 7.9 3.4 4.3 78 1.6 N 17 22 9 12 1021.8 1023.1 0.0
27/05:30pm 7.9 3.4 4.3 78 1.6 N 17 22 9 12 1020.9 - 0.0
27/05:00pm 8.6 3.6 4.4 75 1.9 N 20 28 11 15 1020.9 1022.2 0.0
27/04:30pm 9.4 4.1 4.8 73 2.1 N 22 30 12 16 1020.7 - 0.0
27/04:00pm 10.2 5.2 4.6 68 2.6 N 20 30 11 16 1021.2 1022.4 0.0
27/03:30pm 10.7 5.3 4.6 66 2.9 N 22 30 12 16 1021.3 - 0.0
27/03:00pm 11.4 6.1 4.8 64 3.1 N 22 33 12 18 1021.5 1022.7 0.0
27/02:30pm 12.0 7.1 5.2 63 3.3 N 20 35 11 19 1021.2 - 0.0
27/02:00pm 11.6 6.3 5.0 64 3.1 N 22 33 12 18 1021.2 1022.4 0.0
27/01:30pm 12.5 7.4 5.9 64 3.2 N 22 32 12 17 1021.5 - 0.0
27/01:00pm 11.9 7.3 5.5 65 3.1 N 19 32 10 17 1021.9 1023.2 0.0
27/12:30pm 12.2 8.1 6.0 66 3.0 N 17 28 9 15 1022.5 - 0.0
27/12:00pm 11.9 8.0 5.5 65 3.1 NNE 15 24 8 13 1023.3 1024.6 0.0
27/11:30am 11.2 6.9 5.1 66 2.9 N 17 22 9 12 1023.9 - 0.0
27/11:00am 10.7 7.0 6.3 74 2.1 N 15 22 8 12 1024.3 1025.6 0.0

Other Formats:

Comma delimited format used in spreadsheet applications
http://www.bom.gov.au/fwo/IDV60801/IDV60801.94908.axf

JavaScript Object Notation format (JSON) in row-major order
http://www.bom.gov.au/fwo/IDV60801/IDV60801.94908.json